createdAt,value
2023-02-16T00:01:58.950Z,8.64
2023-02-16T00:04:31.497Z,8.58
2023-02-16T00:06:59.234Z,8.58
2023-02-16T00:09:26.729Z,8.55
2023-02-16T00:12:13.241Z,8.58
2023-02-16T00:14:40.848Z,8.56
2023-02-16T00:17:11.115Z,8.57
2023-02-16T00:19:42.180Z,8.57
2023-02-16T00:22:11.208Z,8.53
2023-02-16T00:24:38.857Z,8.53
2023-02-16T00:27:14.685Z,8.54
2023-02-16T00:29:44.803Z,8.55
2023-02-16T00:32:13.994Z,8.53
2023-02-16T00:34:42.587Z,8.53
2023-02-16T00:37:13.272Z,8.53
2023-02-16T00:39:42.201Z,8.52
2023-02-16T00:42:21.866Z,8.50
2023-02-16T00:44:52.790Z,8.48
2023-02-16T00:47:22.016Z,8.50
2023-02-16T00:49:52.140Z,8.48
2023-02-16T00:52:33.468Z,8.48
2023-02-16T00:55:05.874Z,8.52
2023-02-16T00:57:41.121Z,8.51
2023-02-16T01:00:23.981Z,8.51
2023-02-16T01:02:56.041Z,8.51
2023-02-16T01:05:24.325Z,8.51
2023-02-16T01:08:11.127Z,8.52
2023-02-16T01:10:58.830Z,8.53
2023-02-16T01:13:29.366Z,8.56
2023-02-16T01:15:57.598Z,8.58
2023-02-16T01:18:25.188Z,8.59
2023-02-16T01:20:52.816Z,8.58
2023-02-16T01:23:20.457Z,8.59
2023-02-16T01:25:48.152Z,8.58
2023-02-16T01:28:27.241Z,8.58
2023-02-16T01:30:55.045Z,8.58
2023-02-16T01:33:22.733Z,8.61
2023-02-16T01:35:51.398Z,8.60
2023-02-16T01:38:21.220Z,8.60
2023-02-16T01:41:06.582Z,8.60
2023-02-16T01:43:36.811Z,8.57
2023-02-16T01:46:15.275Z,8.58
2023-02-16T01:48:42.910Z,8.60
2023-02-16T01:51:17.491Z,8.61
2023-02-16T01:53:54.103Z,8.64
2023-02-16T01:56:35.816Z,8.61
2023-02-16T01:59:40.019Z,8.60
2023-02-16T02:02:28.905Z,8.62
2023-02-16T02:05:27.163Z,8.62
2023-02-16T02:08:02.459Z,8.62
2023-02-16T02:10:54.781Z,8.61
2023-02-16T02:13:37.723Z,8.58
2023-02-16T02:16:06.220Z,8.58
2023-02-16T02:18:33.990Z,8.57
2023-02-16T02:21:26.107Z,8.56
2023-02-16T02:24:09.211Z,8.52
2023-02-16T02:27:16.555Z,8.51
2023-02-16T02:30:07.662Z,8.52
2023-02-16T02:32:47.526Z,8.52
2023-02-16T02:35:36.075Z,8.50
2023-02-16T02:38:26.553Z,8.46
2023-02-16T02:41:24.110Z,8.47
2023-02-16T02:44:04.503Z,8.48
2023-02-16T02:46:36.574Z,8.48
2023-02-16T02:49:04.962Z,8.49
2023-02-16T02:51:33.957Z,8.51
2023-02-16T02:54:35.659Z,8.51
2023-02-16T02:57:33.785Z,8.52
2023-02-16T03:00:41.622Z,8.50
2023-02-16T03:03:32.151Z,8.47
2023-02-16T03:06:05.130Z,8.50
2023-02-16T03:08:35.113Z,8.54
2023-02-16T03:11:24.551Z,8.56
2023-02-16T03:13:59.108Z,8.55
2023-02-16T03:16:41.403Z,8.54
2023-02-16T03:19:31.711Z,8.56
2023-02-16T03:22:19.438Z,8.55
2023-02-16T03:25:06.005Z,8.55
2023-02-16T03:27:58.754Z,8.54
2023-02-16T03:30:27.927Z,8.51
2023-02-16T03:32:55.694Z,8.51
2023-02-16T03:35:23.934Z,8.50
2023-02-16T03:37:51.706Z,8.43
2023-02-16T03:40:29.166Z,8.38
2023-02-16T03:42:59.360Z,8.30
2023-02-16T03:45:27.725Z,8.19
2023-02-16T03:47:55.536Z,8.13
2023-02-16T03:50:23.618Z,8.07
2023-02-16T03:52:51.112Z,8.01
2023-02-16T03:55:18.912Z,7.95
2023-02-16T03:57:46.433Z,7.93
2023-02-16T04:00:14.308Z,7.93
2023-02-16T04:02:41.912Z,7.94
2023-02-16T04:05:09.611Z,7.95
2023-02-16T04:07:37.120Z,7.98
2023-02-16T04:10:05.127Z,8.01
2023-02-16T04:12:38.681Z,8.03
2023-02-16T04:15:11.971Z,8.05
2023-02-16T04:17:39.669Z,8.07
2023-02-16T04:20:09.504Z,8.08
2023-02-16T04:22:37.096Z,8.12
2023-02-16T04:25:05.057Z,8.14
2023-02-16T04:27:33.207Z,8.14
2023-02-16T04:30:00.857Z,8.16
2023-02-16T04:32:28.480Z,8.15
2023-02-16T04:34:56.044Z,8.13
2023-02-16T04:37:23.900Z,8.14
2023-02-16T04:39:51.417Z,8.13
2023-02-16T04:42:19.257Z,8.11
2023-02-16T04:44:46.887Z,8.10
2023-02-16T04:47:14.500Z,8.09
2023-02-16T04:52:46.154Z,8.22
2023-02-16T04:55:13.766Z,8.24
2023-02-16T04:57:41.401Z,8.19
2023-02-16T05:00:12.009Z,8.18
2023-02-16T05:02:39.608Z,8.18
2023-02-16T05:05:07.802Z,8.20
2023-02-16T05:07:36.309Z,8.23
2023-02-16T05:10:04.556Z,8.25
2023-02-16T05:12:50.728Z,8.27
2023-02-16T05:15:18.526Z,8.28
2023-02-16T05:17:46.240Z,8.28
2023-02-16T05:20:14.269Z,8.29
2023-02-16T05:22:43.591Z,8.24
2023-02-16T05:25:11.281Z,8.20
2023-02-16T05:27:38.817Z,8.19
2023-02-16T05:30:07.496Z,8.20
2023-02-16T05:32:34.998Z,8.24
2023-02-16T05:35:02.521Z,8.29
2023-02-16T05:37:30.080Z,8.31
2023-02-16T05:39:57.613Z,8.32
2023-02-16T05:42:25.603Z,8.32
2023-02-16T05:44:53.154Z,8.32
2023-02-16T05:47:20.674Z,8.32
2023-02-16T05:49:48.217Z,8.33
2023-02-16T05:52:15.686Z,8.33
2023-02-16T05:54:43.231Z,8.34
2023-02-16T05:57:10.948Z,8.33
2023-02-16T05:59:38.529Z,8.33
2023-02-16T06:02:06.562Z,8.33
2023-02-16T06:04:34.188Z,8.33
2023-02-16T06:07:02.612Z,8.31
2023-02-16T06:09:31.412Z,8.31
2023-02-16T06:11:58.914Z,8.31
2023-02-16T06:14:26.467Z,8.30
2023-02-16T06:16:54.007Z,8.29
2023-02-16T06:19:21.647Z,8.27
2023-02-16T06:21:49.261Z,8.28
2023-02-16T06:24:16.833Z,8.26
2023-02-16T06:26:44.438Z,8.25
2023-02-16T06:29:12.111Z,8.21
2023-02-16T06:31:39.805Z,8.21
2023-02-16T06:34:07.744Z,8.20
2023-02-16T06:36:35.441Z,8.19
2023-02-16T06:39:03.250Z,8.17
2023-02-16T06:41:40.443Z,8.17
2023-02-16T06:44:14.451Z,8.15
2023-02-16T06:46:44.197Z,8.13
2023-02-16T06:49:13.709Z,8.11
2023-02-16T06:51:41.761Z,8.13
2023-02-16T06:54:09.499Z,8.15
2023-02-16T06:56:38.019Z,8.15
2023-02-16T06:59:06.843Z,8.15
2023-02-16T07:01:35.005Z,8.13
2023-02-16T07:04:02.659Z,8.09
2023-02-16T07:06:30.975Z,8.06
2023-02-16T07:08:59.305Z,8.03
2023-02-16T07:11:26.933Z,8.01
2023-02-16T07:13:54.518Z,7.98
2023-02-16T07:16:22.120Z,7.95
2023-02-16T07:18:49.826Z,7.93
2023-02-16T07:21:17.474Z,7.93
2023-02-16T07:23:45.528Z,7.92
2023-02-16T07:26:13.141Z,7.88
2023-02-16T07:28:40.835Z,7.81
2023-02-16T07:31:10.755Z,7.74
2023-02-16T07:33:38.978Z,7.67
2023-02-16T07:36:07.327Z,7.63
2023-02-16T07:38:34.985Z,7.60
2023-02-16T07:41:03.434Z,7.59
2023-02-16T07:43:31.489Z,7.63
2023-02-16T07:45:59.056Z,7.68
2023-02-16T07:48:26.990Z,7.75
2023-02-16T07:50:54.654Z,7.82
2023-02-16T07:53:22.523Z,7.86
2023-02-16T07:55:50.036Z,7.90
2023-02-16T07:58:27.456Z,7.95
2023-02-16T08:01:14.081Z,7.99
2023-02-16T08:03:43.495Z,8.02
2023-02-16T08:06:11.459Z,8.07
2023-02-16T08:08:40.052Z,8.14
2023-02-16T08:11:15.366Z,8.20
2023-02-16T08:13:43.087Z,8.27
2023-02-16T08:16:13.492Z,8.32
2023-02-16T08:18:44.342Z,8.35
2023-02-16T08:21:17.384Z,8.42
2023-02-16T08:23:47.799Z,8.47
2023-02-16T08:26:19.767Z,8.53
2023-02-16T08:28:50.201Z,8.57
2023-02-16T08:31:23.428Z,8.61
2023-02-16T08:33:53.243Z,8.65
2023-02-16T08:36:33.046Z,8.72
2023-02-16T08:39:04.254Z,8.76
2023-02-16T08:41:34.314Z,8.79
2023-02-16T08:44:02.881Z,8.82
2023-02-16T08:46:32.523Z,8.85
2023-02-16T08:49:01.206Z,8.87
2023-02-16T08:51:32.443Z,8.88
2023-02-16T08:54:01.091Z,8.89
2023-02-16T08:56:36.476Z,8.92
2023-02-16T08:59:04.252Z,8.97
2023-02-16T09:01:32.472Z,9.02
2023-02-16T09:04:00.210Z,9.05
2023-02-16T09:06:27.776Z,9.09
2023-02-16T09:08:57.339Z,9.12
2023-02-16T09:11:25.639Z,9.11
2023-02-16T09:13:53.434Z,9.16
2023-02-16T09:16:23.835Z,9.19
2023-02-16T09:18:52.372Z,9.22
2023-02-16T09:21:22.564Z,9.25
2023-02-16T09:23:50.938Z,9.29
2023-02-16T09:26:20.750Z,9.34
2023-02-16T09:28:49.409Z,9.40
2023-02-16T09:31:27.188Z,9.43
2023-02-16T09:33:57.813Z,9.45
2023-02-16T09:36:25.535Z,9.46
2023-02-16T09:38:54.273Z,9.43
2023-02-16T09:41:37.707Z,9.44
2023-02-16T09:44:23.353Z,9.44
2023-02-16T09:46:50.992Z,9.45
2023-02-16T09:49:30.058Z,9.46
2023-02-16T09:52:19.616Z,9.47
2023-02-16T09:54:51.950Z,9.48
2023-02-16T09:57:31.645Z,9.49
2023-02-16T10:00:18.997Z,9.51
2023-02-16T10:03:18.292Z,9.55
2023-02-16T10:06:07.435Z,9.63
2023-02-16T10:08:41.507Z,9.69
2023-02-16T10:11:36.695Z,9.69
2023-02-16T10:14:22.274Z,9.66
2023-02-16T10:17:11.306Z,9.62
2023-02-16T10:19:45.410Z,9.59
2023-02-16T10:22:18.013Z,9.56
2023-02-16T10:24:57.819Z,9.56
2023-02-16T10:27:33.395Z,9.53
2023-02-16T10:30:01.584Z,9.53
2023-02-16T10:32:43.507Z,9.54
2023-02-16T10:35:17.351Z,9.55
2023-02-16T10:38:13.254Z,9.53
2023-02-16T10:41:09.098Z,9.50
2023-02-16T10:43:53.275Z,9.45
2023-02-16T10:46:25.539Z,9.41
2023-02-16T10:48:55.203Z,9.38
2023-02-16T10:51:29.034Z,9.35
2023-02-16T10:54:05.738Z,9.32
2023-02-16T10:56:36.012Z,9.31
2023-02-16T10:59:07.211Z,9.32
2023-02-16T11:01:42.704Z,9.38
2023-02-16T11:04:38.835Z,9.44
2023-02-16T11:07:28.512Z,9.45
2023-02-16T11:09:58.682Z,9.51
2023-02-16T11:12:49.474Z,9.52
2023-02-16T11:15:17.658Z,9.54
2023-02-16T11:18:08.178Z,9.61
2023-02-16T11:20:53.898Z,9.63
2023-02-16T11:23:23.202Z,9.60
2023-02-16T11:26:01.087Z,9.56
2023-02-16T11:28:32.929Z,9.54
2023-02-16T11:31:23.626Z,9.57
2023-02-16T11:34:06.520Z,9.64
2023-02-16T11:36:44.124Z,9.70
2023-02-16T11:39:39.405Z,9.75
2023-02-16T11:42:40.931Z,9.77
2023-02-16T11:45:09.458Z,9.78
2023-02-16T11:47:40.532Z,9.83
2023-02-16T11:50:22.817Z,9.85
2023-02-16T11:52:53.499Z,9.86
2023-02-16T11:55:33.505Z,9.86
2023-02-16T11:58:25.676Z,9.82
2023-02-16T12:01:04.068Z,9.78
2023-02-16T12:03:33.519Z,9.74
2023-02-16T12:06:17.072Z,9.71
2023-02-16T12:09:06.527Z,9.63
2023-02-16T12:11:55.677Z,9.58
2023-02-16T12:14:46.716Z,9.59
2023-02-16T12:17:17.798Z,9.58
2023-02-16T12:19:57.037Z,9.56
2023-02-16T12:22:44.057Z,9.55
2023-02-16T12:25:24.776Z,9.55
2023-02-16T12:28:05.244Z,9.60
2023-02-16T12:31:00.314Z,9.72
2023-02-16T12:33:33.663Z,9.84
2023-02-16T12:36:43.073Z,9.91
2023-02-16T12:39:22.656Z,9.96
2023-02-16T12:42:09.274Z,9.95
2023-02-16T12:44:36.831Z,9.97
2023-02-16T12:47:13.679Z,9.96
2023-02-16T12:49:47.801Z,10.00
2023-02-16T12:52:39.452Z,10.02
2023-02-16T12:55:38.328Z,9.99
2023-02-16T12:58:19.409Z,9.98
2023-02-16T13:00:49.800Z,9.96
2023-02-16T13:03:21.090Z,9.95
2023-02-16T13:05:57.605Z,9.90
2023-02-16T13:08:39.317Z,9.87
2023-02-16T13:11:17.738Z,9.90
2023-02-16T13:13:48.134Z,9.95
2023-02-16T13:16:30.535Z,9.96
2023-02-16T13:18:58.810Z,9.96
2023-02-16T13:21:26.479Z,9.94
2023-02-16T13:24:23.553Z,9.89
2023-02-16T13:27:03.181Z,9.88
2023-02-16T13:29:45.790Z,9.86
2023-02-16T13:32:22.928Z,9.87
2023-02-16T13:35:07.182Z,9.90
2023-02-16T13:37:42.345Z,9.93
2023-02-16T13:40:12.938Z,9.95
2023-02-16T13:43:02.289Z,9.96
2023-02-16T13:45:34.032Z,9.97
2023-02-16T13:48:02.055Z,9.96
2023-02-16T13:50:33.274Z,9.96
2023-02-16T13:53:19.513Z,9.93
2023-02-16T13:55:47.540Z,9.93
2023-02-16T13:58:15.068Z,9.93
2023-02-16T14:00:42.650Z,9.91
2023-02-16T14:03:38.669Z,9.91
2023-02-16T14:06:28.318Z,9.86
2023-02-16T14:09:16.278Z,9.83
2023-02-16T14:11:57.611Z,9.81
2023-02-16T14:14:43.915Z,9.83
2023-02-16T14:17:23.562Z,9.89
2023-02-16T14:20:05.012Z,9.92
2023-02-16T14:22:51.317Z,9.94
2023-02-16T14:25:24.556Z,9.94
2023-02-16T14:27:56.909Z,9.90
2023-02-16T14:30:42.859Z,9.84
2023-02-16T14:33:16.023Z,9.79
2023-02-16T14:35:55.562Z,9.75
2023-02-16T14:38:38.001Z,9.71
2023-02-16T14:41:25.971Z,9.67
2023-02-16T14:44:11.935Z,9.64
2023-02-16T14:46:50.257Z,9.69
2023-02-16T14:49:36.504Z,9.68
2023-02-16T14:52:38.228Z,9.63
2023-02-16T14:55:33.546Z,9.56
2023-02-16T14:58:28.373Z,9.54
2023-02-16T15:01:14.292Z,9.52
2023-02-16T15:03:54.766Z,9.52
2023-02-16T15:06:31.416Z,9.50
2023-02-16T15:09:02.487Z,9.47
2023-02-16T15:11:31.831Z,9.45
2023-02-16T15:14:11.251Z,9.43
2023-02-16T15:16:41.299Z,9.38
2023-02-16T15:19:16.224Z,9.33
2023-02-16T15:21:44.719Z,9.34
2023-02-16T15:24:23.211Z,9.33
2023-02-16T15:26:57.113Z,9.33
2023-02-16T15:29:27.193Z,9.34
2023-02-16T15:31:56.059Z,9.35
2023-02-16T15:34:30.783Z,9.34
2023-02-16T15:36:58.487Z,9.32
2023-02-16T15:39:48.368Z,9.30
2023-02-16T15:42:27.831Z,9.27
2023-02-16T15:44:57.184Z,9.29
2023-02-16T15:47:26.543Z,9.24
2023-02-16T15:49:55.284Z,9.17
2023-02-16T15:52:32.658Z,9.15
2023-02-16T15:55:02.412Z,9.09
2023-02-16T15:57:38.185Z,9.10
2023-02-16T16:00:15.989Z,9.10
2023-02-16T16:02:49.693Z,9.07
2023-02-16T16:05:40.911Z,9.04
2023-02-16T16:08:14.780Z,8.99
2023-02-16T16:10:44.467Z,8.94
2023-02-16T16:13:21.899Z,8.87
2023-02-16T16:15:52.011Z,8.81
2023-02-16T16:18:37.633Z,8.76
2023-02-16T16:21:36.061Z,8.72
2023-02-16T16:24:07.253Z,8.69
2023-02-16T16:26:55.723Z,8.64
2023-02-16T16:29:32.164Z,8.62
2023-02-16T16:32:01.923Z,8.58
2023-02-16T16:34:41.022Z,8.60
2023-02-16T16:37:18.201Z,8.61
2023-02-16T16:40:00.469Z,8.62
2023-02-16T16:42:28.943Z,8.63
2023-02-16T16:46:15.257Z,8.62
2023-02-16T16:53:45.340Z,8.64
2023-02-16T16:56:14.447Z,8.61
2023-02-16T16:58:43.654Z,8.63
2023-02-16T17:01:12.874Z,8.65
2023-02-16T17:03:40.464Z,8.65
2023-02-16T17:06:08.633Z,8.64
2023-02-16T17:08:39.299Z,8.63
2023-02-16T17:11:09.539Z,8.61
2023-02-16T17:13:37.195Z,8.63
2023-02-16T17:16:12.239Z,8.64
2023-02-16T17:18:40.084Z,8.65
2023-02-16T17:21:07.730Z,8.65
2023-02-16T17:23:35.976Z,8.64
2023-02-16T17:26:04.644Z,8.65
2023-02-16T17:28:36.766Z,8.64
2023-02-16T17:31:06.064Z,8.65
2023-02-16T17:33:33.736Z,8.66
2023-02-16T17:36:07.064Z,8.66
2023-02-16T17:38:34.859Z,8.65
2023-02-16T17:41:02.466Z,8.67
2023-02-16T17:43:30.227Z,8.66
2023-02-16T17:46:01.242Z,8.65
2023-02-16T17:48:30.495Z,8.62
2023-02-16T17:50:59.134Z,8.61
2023-02-16T17:53:27.608Z,8.58
2023-02-16T17:55:57.845Z,8.60
2023-02-16T17:58:27.109Z,8.61
2023-02-16T18:00:55.631Z,8.63
2023-02-16T18:03:25.132Z,8.64
2023-02-16T18:05:52.953Z,8.64
2023-02-16T18:08:20.651Z,8.64
2023-02-16T18:10:51.787Z,8.64
2023-02-16T18:13:20.381Z,8.62
2023-02-16T18:15:49.337Z,8.64
2023-02-16T18:18:18.288Z,8.68
2023-02-16T18:20:46.353Z,8.69
2023-02-16T18:23:14.704Z,8.69
2023-02-16T18:25:44.148Z,8.70
2023-02-16T18:28:20.879Z,8.75
2023-02-16T18:30:50.952Z,8.76
2023-02-16T18:33:21.310Z,8.79
2023-02-16T18:35:52.340Z,8.82
2023-02-16T18:38:22.077Z,8.83
2023-02-16T18:40:50.372Z,8.87
2023-02-16T18:43:18.283Z,8.92
2023-02-16T18:45:46.031Z,8.90
2023-02-16T18:48:13.718Z,8.93
2023-02-16T18:50:41.479Z,8.95
2023-02-16T18:53:09.179Z,8.96
2023-02-16T18:55:36.801Z,8.97
2023-02-16T18:58:07.903Z,8.98
2023-02-16T19:00:36.707Z,9.03
2023-02-16T19:03:04.601Z,9.06
2023-02-16T19:05:32.876Z,9.06
2023-02-16T19:08:00.586Z,9.08
2023-02-16T19:10:31.623Z,9.11
2023-02-16T19:13:01.215Z,9.12
2023-02-16T19:15:29.744Z,9.15
2023-02-16T19:17:57.270Z,9.18
2023-02-16T19:20:25.684Z,9.22
2023-02-16T19:22:53.229Z,9.25
2023-02-16T19:25:21.334Z,9.28
2023-02-16T19:27:49.070Z,9.33
2023-02-16T19:30:16.948Z,9.40
2023-02-16T19:32:44.612Z,9.45
2023-02-16T19:35:13.107Z,9.50
2023-02-16T19:37:40.628Z,9.55
2023-02-16T19:40:10.417Z,9.63
2023-02-16T19:42:38.966Z,9.69
2023-02-16T19:45:07.880Z,9.75
2023-02-16T19:47:35.824Z,9.80
2023-02-16T19:50:03.993Z,9.88
2023-02-16T19:52:31.727Z,9.93
2023-02-16T19:54:59.261Z,9.98
2023-02-16T19:57:27.002Z,10.02
2023-02-16T19:59:56.184Z,10.06
2023-02-16T20:02:23.767Z,10.12
2023-02-16T20:04:53.595Z,10.14
2023-02-16T20:07:21.178Z,10.17
2023-02-16T20:09:48.713Z,10.21
2023-02-16T20:12:16.568Z,10.22
2023-02-16T20:14:44.420Z,10.24
2023-02-16T20:17:12.013Z,10.25
2023-02-16T20:19:39.610Z,10.24
2023-02-16T20:22:07.201Z,10.25
2023-02-16T20:24:34.937Z,10.25
2023-02-16T20:27:04.523Z,10.25
2023-02-16T20:29:32.223Z,10.25
2023-02-16T20:32:00.206Z,10.27
2023-02-16T20:34:28.123Z,10.28
2023-02-16T20:36:55.734Z,10.30
2023-02-16T20:39:23.680Z,10.29
2023-02-16T20:41:51.421Z,10.32
2023-02-16T20:44:19.226Z,10.34
2023-02-16T20:46:46.805Z,10.33
2023-02-16T20:49:16.491Z,10.35
2023-02-16T20:51:44.318Z,10.36
2023-02-16T20:54:12.208Z,10.37
2023-02-16T20:56:39.961Z,10.39
2023-02-16T20:59:07.697Z,10.39
2023-02-16T21:01:43.649Z,10.39
2023-02-16T21:04:11.553Z,10.39
2023-02-16T21:06:39.527Z,10.40
2023-02-16T21:09:08.815Z,10.44
2023-02-16T21:11:37.735Z,10.47
2023-02-16T21:14:06.987Z,10.49
2023-02-16T21:16:35.149Z,10.50
2023-02-16T21:19:05.596Z,10.51
2023-02-16T21:21:41.048Z,10.52
2023-02-16T21:24:08.906Z,10.54
2023-02-16T21:26:36.473Z,10.55
2023-02-16T21:29:04.184Z,10.55
2023-02-16T21:31:31.707Z,10.53
2023-02-16T21:33:59.415Z,10.53
2023-02-16T21:36:37.083Z,10.53
2023-02-16T21:39:04.952Z,10.56
2023-02-16T21:41:32.876Z,10.56
2023-02-16T21:44:04.329Z,10.57
2023-02-16T21:46:43.872Z,10.58
2023-02-16T21:49:16.687Z,10.61
2023-02-16T21:51:45.813Z,10.63
2023-02-16T21:54:16.602Z,10.64
2023-02-16T21:56:50.261Z,10.67
2023-02-16T21:59:19.444Z,10.70
2023-02-16T22:01:51.226Z,10.71
2023-02-16T22:04:21.886Z,10.76
2023-02-16T22:06:50.976Z,10.76
2023-02-16T22:09:23.234Z,10.80
2023-02-16T22:11:51.638Z,10.80
2023-02-16T22:14:19.461Z,10.81
2023-02-16T22:16:48.111Z,10.82
2023-02-16T22:19:18.286Z,10.81
2023-02-16T22:21:47.468Z,10.81
2023-02-16T22:24:17.822Z,10.83
2023-02-16T22:26:47.729Z,10.85
2023-02-16T22:29:15.969Z,10.87
2023-02-16T22:31:49.020Z,10.87
2023-02-16T22:34:19.220Z,10.88
2023-02-16T22:36:47.462Z,10.89
2023-02-16T22:39:16.592Z,10.88
2023-02-16T22:41:44.272Z,10.90
2023-02-16T22:44:12.666Z,10.91
2023-02-16T22:46:40.311Z,10.92
2023-02-16T22:49:09.466Z,10.94
2023-02-16T22:51:37.660Z,10.93
2023-02-16T22:54:06.005Z,10.92
2023-02-16T22:56:34.335Z,10.92
2023-02-16T22:59:01.972Z,10.92
2023-02-16T23:01:31.064Z,10.92
2023-02-16T23:04:00.983Z,10.92
2023-02-16T23:06:31.497Z,10.90
2023-02-16T23:09:02.130Z,10.89
2023-02-16T23:11:29.970Z,10.90
2023-02-16T23:13:57.732Z,10.90
2023-02-16T23:16:27.722Z,10.89
2023-02-16T23:18:57.412Z,10.88
2023-02-16T23:21:30.951Z,10.87
2023-02-16T23:23:59.586Z,10.84
2023-02-16T23:29:25.469Z,10.84
2023-02-16T23:31:53.390Z,10.83
2023-02-16T23:34:21.678Z,10.80
2023-02-16T23:36:49.620Z,10.81
2023-02-16T23:39:19.386Z,10.81
2023-02-16T23:41:47.234Z,10.81
2023-02-16T23:44:15.051Z,10.80
2023-02-16T23:46:42.827Z,10.79
2023-02-16T23:49:10.403Z,10.77
2023-02-16T23:51:37.998Z,10.77
2023-02-16T23:54:05.619Z,10.77
2023-02-16T23:56:33.290Z,10.79
2023-02-16T23:59:01.793Z,10.76
